Weather at Wotho Island Airport

Public forecast

Using degrees Celsius for public forecast. Weather courtesy of forecast.io.

Closest aviation weather report (METAR) to Wotho Island Airport

Closest report is Bucholz Army Air Field, 134.5 nm (249.1 km) SE.

2024/05/25 02:00 (retrieved 29 minutes ago)

PKWA 250200Z AUTO 04007KT 10SM -RA SCT014 SCT021 BKN030 29/26 A2985 RMK AO2 T02940258

Closest aviation forecast (TAF) to Wotho Island Airport

Closest forecast is Wake Island Airfield, 548.1 nm (1,015.2 km) N.

2024/05/24 22:40 Ammendment (retrieved 4 hours ago)

TAF AMD PWAK 242230Z 2422/2604 05012KT 9999 SCT015 BKN030 QNH2996INS TEMPO 2422/2506 05015KT BKN019 BECMG 2514/2515 03012KT 9000 -SHRA BKN030 BKN040 OVC045 QNH2995INS TX31/2503Z TN26/2518Z FOR MIL USE ONLY